Time;durP1;ratioP1;P1;durP2;ratioP2;P2;SDS_P1;SDS_P2;PMS_P1;PMS_P2;Temp;Humidity;BMP_temperature;BMP_pressure;BME280_temperature;BME280_humidity;BME280_pressure;Samples;Min_cycle;Max_cycle;Signal;HPM_P1;HPM_P2
2021/12/09 00:01:27;;;;;;;13.45;5.90;;;;;;;;;;5959239;23;34715;-68
2021/12/09 00:03:57;;;;;;;6.13;5.72;;;;;;;;;;5960233;23;32365;-68
2021/12/09 00:06:27;;;;;;;5.80;5.30;;;;;;;;;;5960457;23;32255;-69
2021/12/09 00:09:06;;;;;;;5.93;5.55;;;;;;;;;;5960646;23;32693;-69
2021/12/09 00:11:41;;;;;;;5.25;4.85;;;;;;;;;;5960302;23;32085;-68
2021/12/09 00:14:09;;;;;;;6.10;5.72;;;;;;;;;;5961045;23;32555;-68
2021/12/09 00:16:36;;;;;;;5.55;5.25;;;;;;;;;;5960279;23;32430;-68
2021/12/09 00:19:06;;;;;;;7.20;5.90;;;;;;;;;;5960440;23;32365;-69
2021/12/09 00:21:33;;;;;;;6.35;5.72;;;;;;;;;;5961038;23;32706;-69
2021/12/09 00:24:05;;;;;;;6.65;6.18;;;;;;;;;;5960041;23;34694;-69
2021/12/09 00:26:32;;;;;;;6.38;5.97;;;;;;;;;;5960240;23;32371;-69
2021/12/09 00:29:03;;;;;;;6.22;5.82;;;;;;;;;;5960988;23;32298;-69
2021/12/09 00:31:29;;;;;;;6.43;5.82;;;;;;;;;;5960611;23;32405;-70
2021/12/09 00:33:58;;;;;;;6.60;6.10;;;;;;;;;;5960914;23;32434;-70
2021/12/09 00:36:32;;;;;;;6.55;6.05;;;;;;;;;;5960624;23;32241;-71
2021/12/09 00:39:01;;;;;;;6.45;5.95;;;;;;;;;;5960212;23;32296;-70
2021/12/09 00:41:29;;;;;;;6.80;6.30;;;;;;;;;;5960048;23;32432;-69
2021/12/09 00:43:59;;;;;;;7.00;6.60;;;;;;;;;;5960471;23;32571;-68
2021/12/09 00:46:30;;;;;;;7.10;6.60;;;;;;;;;;5960328;23;35383;-69
2021/12/09 00:49:06;;;;;;;;;;;;;;;;;;5961204;23;32328;-68
2021/12/09 00:51:33;;;;;;;6.63;6.22;;;;;;;;;;5959970;23;32353;-69
2021/12/09 00:54:01;;;;;;;7.10;6.70;;;;;;;;;;5960918;23;32301;-68
2021/12/09 00:56:28;;;;;;;6.82;6.30;;;;;;;;;;5960381;23;32071;-69
2021/12/09 00:58:55;;;;;;;7.15;6.75;;;;;;;;;;5959953;23;32508;-68
2021/12/09 01:01:22;;;;;;;6.47;6.07;;;;;;;;;;5959821;23;32340;-69
2021/12/09 01:03:49;;;;;;;7.35;6.85;;;;;;;;;;5959494;23;32325;-70
2021/12/09 01:06:17;;;;;;;7.38;6.82;;;;;;;;;;5960341;23;32147;-70
2021/12/09 01:08:45;;;;;;;8.25;7.72;;;;;;;;;;5959262;23;34659;-70
2021/12/09 01:11:14;;;;;;;8.18;7.43;;;;;;;;;;5959723;23;32406;-69
2021/12/09 01:13:42;;;;;;;8.77;7.88;;;;;;;;;;5959872;23;32373;-69
2021/12/09 01:16:11;;;;;;;8.15;7.50;;;;;;;;;;5960265;23;32246;-69
2021/12/09 01:18:38;;;;;;;7.78;7.18;;;;;;;;;;5959504;23;32270;-69
2021/12/09 01:21:06;;;;;;;9.13;8.43;;;;;;;;;;5959898;23;32410;-69
2021/12/09 01:23:33;;;;;;;7.65;7.15;;;;;;;;;;5959926;23;32418;-69
2021/12/09 01:26:06;;;;;;;8.95;8.27;;;;;;;;;;5959526;23;32371;-70
2021/12/09 01:28:51;;;;;;;8.05;7.47;;;;;;;;;;5959934;23;32400;-69
2021/12/09 01:31:24;;;;;;;9.15;8.35;;;;;;;;;;5959763;23;35360;-69
2021/12/09 01:33:53;;;;;;;9.27;8.52;;;;;;;;;;5960133;23;32426;-70
2021/12/09 01:36:22;;;;;;;9.88;8.95;;;;;;;;;;5959971;23;32049;-69
2021/12/09 01:38:49;;;;;;;9.85;8.70;;;;;;;;;;5960072;23;32436;-68
2021/12/09 01:41:16;;;;;;;9.63;8.80;;;;;;;;;;5958790;23;35124;-69
2021/12/09 01:43:47;;;;;;;10.13;8.93;;;;;;;;;;5959225;23;32485;-68
2021/12/09 01:46:17;;;;;;;9.80;8.95;;;;;;;;;;5960249;23;32258;-69
2021/12/09 01:48:46;;;;;;;11.52;10.38;;;;;;;;;;5959982;23;32348;-69
2021/12/09 01:51:13;;;;;;;12.18;10.70;;;;;;;;;;5959851;23;32148;-68
2021/12/09 01:53:42;;;;;;;14.80;11.25;;;;;;;;;;5959438;23;34338;-69
2021/12/09 01:56:13;;;;;;;13.13;11.13;;;;;;;;;;5959895;23;32436;-71
2021/12/09 01:58:39;;;;;;;14.38;11.55;;;;;;;;;;5960067;23;32488;-71
2021/12/09 02:01:08;;;;;;;14.20;11.45;;;;;;;;;;5959822;23;32281;-70
2021/12/09 02:03:36;;;;;;;12.23;11.05;;;;;;;;;;5959247;23;35208;-69
2021/12/09 02:06:12;;;;;;;16.13;11.38;;;;;;;;;;5959663;23;32484;-69
2021/12/09 02:08:39;;;;;;;15.48;11.30;;;;;;;;;;5959172;23;32285;-67
2021/12/09 02:11:09;;;;;;;20.30;12.05;;;;;;;;;;5959388;23;32080;-68
2021/12/09 02:13:36;;;;;;;15.20;11.02;;;;;;;;;;5959625;23;32353;-69
2021/12/09 02:16:04;;;;;;;14.23;11.05;;;;;;;;;;5959574;23;35565;-69
2021/12/09 02:18:32;;;;;;;17.23;10.90;;;;;;;;;;5959201;23;32555;-70
2021/12/09 02:21:15;;;;;;;18.33;11.82;;;;;;;;;;5958302;23;32388;-71
2021/12/09 02:23:45;;;;;;;12.48;9.95;;;;;;;;;;5959696;23;32384;-70
2021/12/09 02:26:12;;;;;;;20.98;11.13;;;;;;;;;;5959008;23;35275;-69
2021/12/09 02:28:39;;;;;;;21.10;11.55;;;;;;;;;;5959375;23;32524;-69
2021/12/09 02:31:06;;;;;;;20.38;11.68;;;;;;;;;;5959694;23;32288;-68
2021/12/09 02:33:33;;;;;;;20.77;12.57;;;;;;;;;;5959240;23;32390;-69
2021/12/09 02:36:03;;;;;;;18.27;11.50;;;;;;;;;;5959390;23;32139;-69
2021/12/09 02:38:31;;;;;;;17.77;11.55;;;;;;;;;;5959039;23;33993;-69
2021/12/09 02:40:58;;;;;;;17.27;11.23;;;;;;;;;;5958663;23;32517;-68
2021/12/09 02:43:28;;;;;;;17.15;12.15;;;;;;;;;;5959110;23;32222;-68
2021/12/09 02:45:56;;;;;;;16.30;11.15;;;;;;;;;;5958907;23;32425;-69
2021/12/09 02:48:24;;;;;;;13.07;10.80;;;;;;;;;;5958775;23;34729;-68
2021/12/09 02:50:56;;;;;;;18.23;11.43;;;;;;;;;;5856637;23;32237;-68
2021/12/09 02:53:23;;;;;;;11.43;10.40;;;;;;;;;;5903444;23;32313;-69
2021/12/09 02:55:51;;;;;;;16.92;10.75;;;;;;;;;;5902627;23;32293;-67
2021/12/09 02:58:19;;;;;;;13.95;10.55;;;;;;;;;;5902880;23;32825;-68
2021/12/09 03:01:01;;;;;;;16.38;9.73;;;;;;;;;;5903137;23;34587;-67
2021/12/09 03:03:27;;;;;;;;;;;;;;;;;;5904393;23;32401;-68
2021/12/09 03:05:56;;;;;;;14.68;9.23;;;;;;;;;;5903326;23;32314;-71
2021/12/09 03:08:34;;;;;;;16.25;9.50;;;;;;;;;;5918456;23;32227;-73
2021/12/09 03:11:06;;;;;;;11.65;9.32;;;;;;;;;;5930609;23;34993;-68
2021/12/09 03:13:32;;;;;;;;;;;;;;;;;;5932316;23;32300;-67
2021/12/09 03:15:59;;;;;;;11.02;9.25;;;;;;;;;;5932472;23;32464;-67
2021/12/09 03:18:26;;;;;;;15.77;9.50;;;;;;;;;;5932178;23;32381;-67
2021/12/09 03:20:56;;;;;;;13.43;9.13;;;;;;;;;;5929939;23;32275;-67
2021/12/09 03:23:25;;;;;;;10.10;8.88;;;;;;;;;;5930325;23;33979;-69
2021/12/09 03:25:53;;;;;;;13.18;8.13;;;;;;;;;;5932332;23;32525;-68
2021/12/09 03:28:22;;;;;;;11.32;7.53;;;;;;;;;;5932286;23;32673;-69
2021/12/09 03:30:49;;;;;;;11.88;8.70;;;;;;;;;;5932751;23;32772;-68
2021/12/09 03:33:15;;;;;;;11.40;8.30;;;;;;;;;;5932243;23;35270;-68
2021/12/09 03:35:42;;;;;;;12.60;8.55;;;;;;;;;;5929504;23;32297;-68
2021/12/09 03:38:09;;;;;;;12.43;8.77;;;;;;;;;;5929639;23;32431;-69
2021/12/09 03:40:35;;;;;;;11.20;8.52;;;;;;;;;;5929324;23;32473;-69
2021/12/09 03:43:02;;;;;;;12.38;8.73;;;;;;;;;;5931957;23;32516;-69
2021/12/09 03:45:32;;;;;;;8.98;7.82;;;;;;;;;;5931932;23;35584;-68
2021/12/09 03:47:59;;;;;;;17.02;9.07;;;;;;;;;;5931715;23;32417;-68
2021/12/09 03:50:25;;;;;;;16.40;8.52;;;;;;;;;;5931970;23;32204;-69
2021/12/09 03:52:52;;;;;;;15.30;8.80;;;;;;;;;;5932216;23;32423;-68
2021/12/09 03:55:19;;;;;;;11.05;7.97;;;;;;;;;;5931260;23;35414;-68
2021/12/09 03:57:45;;;;;;;11.55;6.85;;;;;;;;;;5931958;23;32497;-69
2021/12/09 04:00:14;;;;;;;14.13;8.85;;;;;;;;;;5932191;23;32235;-69
2021/12/09 04:02:44;;;;;;;9.65;8.25;;;;;;;;;;5931714;23;32338;-68
2021/12/09 04:05:11;;;;;;;11.27;7.93;;;;;;;;;;5932198;23;32436;-69
2021/12/09 04:07:38;;;;;;;12.95;7.57;;;;;;;;;;5931945;23;34471;-69
2021/12/09 04:10:10;;;;;;;10.82;8.38;;;;;;;;;;5932005;23;32416;-69
2021/12/09 04:12:40;;;;;;;8.43;7.20;;;;;;;;;;5932622;23;32332;-69
2021/12/09 04:15:09;;;;;;;8.98;6.95;;;;;;;;;;5930208;23;32351;-69
2021/12/09 04:17:36;;;;;;;9.15;7.88;;;;;;;;;;5932403;23;35812;-69
2021/12/09 04:20:11;;;;;;;12.57;7.97;;;;;;;;;;5931973;23;32403;-67
2021/12/09 04:22:37;;;;;;;10.07;7.05;;;;;;;;;;5931744;23;32223;-68
2021/12/09 04:25:06;;;;;;;11.93;8.18;;;;;;;;;;5931895;23;32399;-68
2021/12/09 04:27:34;;;;;;;7.93;7.13;;;;;;;;;;5931897;23;32271;-68
2021/12/09 04:30:00;;;;;;;9.30;6.82;;;;;;;;;;5930956;23;35542;-67
2021/12/09 04:32:27;;;;;;;19.77;7.40;;;;;;;;;;5919581;23;32346;-67
2021/12/09 04:34:56;;;;;;;8.32;7.55;;;;;;;;;;5930900;23;32235;-68
2021/12/09 04:37:33;;;;;;;9.50;7.07;;;;;;;;;;5929180;23;32428;-67
2021/12/09 04:40:00;;;;;;;10.70;7.05;;;;;;;;;;5928948;23;34844;-67
2021/12/09 04:42:27;;;;;;;9.95;7.38;;;;;;;;;;5874198;23;32511;-67
2021/12/09 04:44:55;;;;;;;12.52;7.63;;;;;;;;;;5901930;24;32378;-68
2021/12/09 04:47:21;;;;;;;7.70;6.97;;;;;;;;;;5884590;23;58909;-68
2021/12/09 04:49:51;;;;;;;8.02;7.18;;;;;;;;;;5930707;23;32491;-68
2021/12/09 04:52:19;;;;;;;11.13;6.72;;;;;;;;;;5930251;23;34697;-68
2021/12/09 04:55:55;;;;;;;9.73;6.88;;;;;;;;;;4126943;33;32603;-67
2021/12/09 05:01:15;;;;;;;8.48;6.78;;;;;;;;;;3762027;33;32725;-68
2021/12/09 05:03:46;;;;;;;8.40;6.50;;;;;;;;;;4736114;29;41074;-68
2021/12/09 05:06:16;;;;;;;7.28;6.53;;;;;;;;;;4880365;29;35546;-68
2021/12/09 05:08:47;;;;;;;8.05;7.45;;;;;;;;;;4879167;29;32480;-68
2021/12/09 05:11:32;;;;;;;6.90;6.40;;;;;;;;;;4879797;29;32444;-68
2021/12/09 05:14:00;;;;;;;7.47;6.75;;;;;;;;;;4880475;29;32235;-68
2021/12/09 05:16:30;;;;;;;6.47;5.88;;;;;;;;;;4878833;29;32356;-68
2021/12/09 05:18:59;;;;;;;7.10;6.50;;;;;;;;;;4861242;29;35058;-68
2021/12/09 05:21:36;;;;;;;7.97;7.35;;;;;;;;;;4864000;29;32660;-68
2021/12/09 05:24:09;;;;;;;9.90;6.57;;;;;;;;;;4879926;29;32322;-67
2021/12/09 05:26:45;;;;;;;12.85;6.60;;;;;;;;;;4879741;29;32210;-68
2021/12/09 05:29:13;;;;;;;7.22;6.47;;;;;;;;;;4875809;29;34171;-68
2021/12/09 05:34:32;;;;;;;8.55;6.30;;;;;;;;;;4863286;29;32510;-67
2021/12/09 05:37:03;;;;;;;7.15;6.47;;;;;;;;;;4869171;29;32511;-68
2021/12/09 05:39:31;;;;;;;7.13;6.53;;;;;;;;;;4866753;29;33030;-67
2021/12/09 05:42:01;;;;;;;7.03;6.30;;;;;;;;;;4868657;29;34224;-68
2021/12/09 05:44:31;;;;;;;7.80;6.65;;;;;;;;;;4868525;29;32502;-67
2021/12/09 05:47:02;;;;;;;6.85;6.25;;;;;;;;;;4869060;29;32266;-67
2021/12/09 05:49:30;;;;;;;8.13;6.38;;;;;;;;;;4869382;29;32527;-67
2021/12/09 05:52:01;;;;;;;7.53;6.63;;;;;;;;;;4869481;29;34309;-69
2021/12/09 05:54:32;;;;;;;7.15;6.65;;;;;;;;;;4871006;29;32769;-69
2021/12/09 05:57:03;;;;;;;8.40;6.57;;;;;;;;;;4869597;29;32683;-68
2021/12/09 05:59:34;;;;;;;7.97;6.50;;;;;;;;;;4869760;29;32786;-69
2021/12/09 06:02:05;;;;;;;7.03;6.43;;;;;;;;;;4869657;29;32407;-68
2021/12/09 06:04:42;;;;;;;6.57;5.97;;;;;;;;;;4868180;29;36088;-69
2021/12/09 06:07:10;;;;;;;7.88;6.20;;;;;;;;;;4868358;29;32550;-69
2021/12/09 06:09:44;;;;;;;7.03;6.47;;;;;;;;;;4867247;29;32417;-70
2021/12/09 06:12:13;;;;;;;6.57;6.07;;;;;;;;;;4850726;29;32360;-70
2021/12/09 06:14:43;;;;;;;9.82;7.10;;;;;;;;;;4848414;29;34390;-70
2021/12/09 06:17:13;;;;;;;7.57;6.90;;;;;;;;;;4848376;29;32445;-68
2021/12/09 06:19:43;;;;;;;6.87;6.37;;;;;;;;;;4848414;29;32472;-69
2021/12/09 06:22:11;;;;;;;7.07;6.43;;;;;;;;;;4848775;29;32606;-69
2021/12/09 06:24:39;;;;;;;6.75;6.15;;;;;;;;;;4848559;29;32412;-69
2021/12/09 06:27:09;;;;;;;7.80;7.03;;;;;;;;;;4848339;29;34934;-69
2021/12/09 06:29:40;;;;;;;7.43;6.40;;;;;;;;;;4848551;29;32684;-69
2021/12/09 06:32:11;;;;;;;5.43;5.10;;;;;;;;;;4848154;29;32318;-69
2021/12/09 06:34:43;;;;;;;7.40;5.85;;;;;;;;;;4848547;29;32365;-69
2021/12/09 06:37:14;;;;;;;6.82;6.13;;;;;;;;;;4848755;29;34059;-69
2021/12/09 06:39:42;;;;;;;6.22;5.65;;;;;;;;;;4848081;29;32476;-69
2021/12/09 06:42:10;;;;;;;6.28;5.38;;;;;;;;;;4848790;29;32270;-69
2021/12/09 06:44:42;;;;;;;7.15;5.50;;;;;;;;;;4848321;29;32444;-69
2021/12/09 06:47:11;;;;;;;;;;;;;;;;;;4849010;29;32459;-69
2021/12/09 06:49:40;;;;;;;5.82;5.43;;;;;;;;;;4848493;29;34808;-69
2021/12/09 06:52:09;;;;;;;5.70;5.30;;;;;;;;;;4861060;29;32605;-69
2021/12/09 06:54:37;;;;;;;6.72;5.97;;;;;;;;;;4864369;29;32443;-69
2021/12/09 06:57:07;;;;;;;7.32;5.78;;;;;;;;;;4866249;29;32482;-69
2021/12/09 06:59:37;;;;;;;6.07;5.55;;;;;;;;;;4866388;29;34008;-69
2021/12/09 07:02:05;;;;;;;5.97;5.47;;;;;;;;;;4867621;29;32261;-69
2021/12/09 07:04:35;;;;;;;5.65;5.13;;;;;;;;;;4866523;29;32348;-69
2021/12/09 07:07:04;;;;;;;6.88;5.05;;;;;;;;;;4866549;29;32540;-69
2021/12/09 07:09:32;;;;;;;5.60;5.18;;;;;;;;;;4867104;29;32461;-69
2021/12/09 07:12:10;;;;;;;5.22;4.82;;;;;;;;;;4866621;29;35475;-69
2021/12/09 07:14:39;;;;;;;5.20;4.80;;;;;;;;;;4866698;29;32308;-69
2021/12/09 07:17:07;;;;;;;5.38;4.85;;;;;;;;;;4866912;29;32435;-68
2021/12/09 07:19:37;;;;;;;4.95;4.65;;;;;;;;;;4867363;29;32663;-69
2021/12/09 07:22:14;;;;;;;5.60;5.10;;;;;;;;;;4866128;29;35530;-69
2021/12/09 07:24:45;;;;;;;8.57;4.93;;;;;;;;;;4866627;29;32200;-69
2021/12/09 07:27:13;;;;;;;5.38;4.55;;;;;;;;;;4866813;29;32409;-69
2021/12/09 07:29:41;;;;;;;6.25;4.78;;;;;;;;;;4867025;29;32418;-69
2021/12/09 07:32:13;;;;;;;5.10;4.70;;;;;;;;;;4866572;29;32367;-69
2021/12/09 07:34:42;;;;;;;5.43;4.93;;;;;;;;;;4866412;29;35812;-68
2021/12/09 07:37:11;;;;;;;5.25;4.85;;;;;;;;;;4849378;29;32316;-68
2021/12/09 07:39:40;;;;;;;5.18;4.68;;;;;;;;;;4866746;29;32515;-69
2021/12/09 07:42:11;;;;;;;5.28;4.78;;;;;;;;;;4866353;29;32413;-70
2021/12/09 07:44:39;;;;;;;5.37;4.97;;;;;;;;;;4866564;29;35725;-68
2021/12/09 07:47:07;;;;;;;4.85;4.55;;;;;;;;;;4866412;29;32402;-69
2021/12/09 07:49:40;;;;;;;5.22;4.57;;;;;;;;;;4866236;29;32369;-69
2021/12/09 07:52:09;;;;;;;5.53;4.93;;;;;;;;;;4866450;29;32482;-69
2021/12/09 07:54:37;;;;;;;5.10;4.75;;;;;;;;;;4866280;29;32564;-69
2021/12/09 07:57:10;;;;;;;5.60;5.05;;;;;;;;;;4866489;29;34180;-69
2021/12/09 07:59:44;;;;;;;5.13;4.72;;;;;;;;;;4865244;29;32221;-69
2021/12/09 08:02:12;;;;;;;4.82;4.47;;;;;;;;;;4865360;29;32382;-71
2021/12/09 08:04:41;;;;;;;6.63;4.55;;;;;;;;;;4866301;29;32465;-69
2021/12/09 08:07:10;;;;;;;5.03;4.63;;;;;;;;;;4866230;29;34814;-69
2021/12/09 08:09:38;;;;;;;5.07;4.57;;;;;;;;;;4865771;29;32355;-69
2021/12/09 08:12:13;;;;;;;4.93;4.60;;;;;;;;;;4865887;29;32395;-69
2021/12/09 08:14:41;;;;;;;5.20;4.72;;;;;;;;;;4865940;29;32228;-70
2021/12/09 08:17:13;;;;;;;5.68;4.63;;;;;;;;;;4866034;29;32429;-69
2021/12/09 08:19:44;;;;;;;5.30;4.90;;;;;;;;;;4865697;29;34974;-69
2021/12/09 08:22:16;;;;;;;4.65;4.35;;;;;;;;;;4866487;29;32327;-70
2021/12/09 08:24:49;;;;;;;5.93;4.57;;;;;;;;;;4865837;29;32519;-69
2021/12/09 08:27:17;;;;;;;4.80;4.47;;;;;;;;;;4866594;29;32585;-69
2021/12/09 08:29:50;;;;;;;6.13;4.88;;;;;;;;;;4865752;29;35445;-70
2021/12/09 08:32:24;;;;;;;5.78;4.25;;;;;;;;;;4865984;29;32317;-69
2021/12/09 08:34:56;;;;;;;7.18;4.78;;;;;;;;;;4865146;29;32301;-69
2021/12/09 08:37:29;;;;;;;4.70;4.30;;;;;;;;;;4865991;29;32343;-69
2021/12/09 08:40:03;;;;;;;5.65;4.75;;;;;;;;;;4865919;29;32358;-69
2021/12/09 08:42:31;;;;;;;4.88;4.57;;;;;;;;;;4865849;29;34529;-68
2021/12/09 08:45:01;;;;;;;7.53;4.15;;;;;;;;;;4865498;29;32328;-68
2021/12/09 08:47:35;;;;;;;9.48;5.22;;;;;;;;;;4865691;29;32433;-70
2021/12/09 08:50:05;;;;;;;4.95;4.55;;;;;;;;;;4865318;29;32315;-70
2021/12/09 08:52:35;;;;;;;5.10;4.50;;;;;;;;;;4865317;29;34236;-70
2021/12/09 08:55:05;;;;;;;4.97;4.57;;;;;;;;;;4865454;29;32329;-70
2021/12/09 08:57:34;;;;;;;5.93;4.63;;;;;;;;;;4865023;29;32344;-70
2021/12/09 09:00:16;;;;;;;4.65;4.22;;;;;;;;;;4864927;29;32457;-70
2021/12/09 09:02:52;;;;;;;9.32;4.53;;;;;;;;;;4858306;29;32357;-70
2021/12/09 09:05:20;;;;;;;4.88;4.35;;;;;;;;;;4846588;29;34273;-70
2021/12/09 09:07:51;;;;;;;11.52;4.65;;;;;;;;;;4846293;29;32413;-70
2021/12/09 09:10:35;;;;;;;5.87;4.60;;;;;;;;;;4850183;29;32508;-70
2021/12/09 09:13:08;;;;;;;5.57;5.03;;;;;;;;;;4865137;29;32311;-69
2021/12/09 09:15:39;;;;;;;4.70;4.30;;;;;;;;;;4865128;29;34833;-69
2021/12/09 09:18:11;;;;;;;4.65;4.25;;;;;;;;;;4864910;29;32412;-68
2021/12/09 09:20:42;;;;;;;4.80;4.40;;;;;;;;;;4864717;29;32381;-69
2021/12/09 09:23:13;;;;;;;5.45;4.95;;;;;;;;;;4864997;29;32384;-68
2021/12/09 09:25:43;;;;;;;5.13;4.72;;;;;;;;;;4865031;29;32431;-68
2021/12/09 09:28:14;;;;;;;6.68;4.93;;;;;;;;;;4865139;29;32489;-68
2021/12/09 09:30:52;;;;;;;;;;;;;;;;;;4865512;29;32430;-70
2021/12/09 09:33:24;;;;;;;4.95;4.65;;;;;;;;;;4865167;29;32288;-69
2021/12/09 09:35:55;;;;;;;4.88;4.47;;;;;;;;;;4864911;29;32434;-70
2021/12/09 09:38:25;;;;;;;7.10;5.07;;;;;;;;;;4864927;29;35182;-69
2021/12/09 09:41:03;;;;;;;5.35;4.80;;;;;;;;;;4865452;29;32296;-69
2021/12/09 09:43:55;;;;;;;5.00;4.55;;;;;;;;;;4865004;29;32422;-69
2021/12/09 09:46:26;;;;;;;6.15;4.97;;;;;;;;;;4865625;29;32308;-69
2021/12/09 09:48:57;;;;;;;4.90;4.60;;;;;;;;;;4868377;29;32376;-69
2021/12/09 09:51:28;;;;;;;5.88;5.13;;;;;;;;;;4867455;29;32241;-69
2021/12/09 09:53:58;;;;;;;5.75;4.88;;;;;;;;;;4867853;29;32907;-69
2021/12/09 09:56:28;;;;;;;5.47;4.40;;;;;;;;;;4867474;29;32401;-69
2021/12/09 09:58:59;;;;;;;7.00;4.30;;;;;;;;;;4867836;29;32398;-70
2021/12/09 10:01:30;;;;;;;4.88;4.50;;;;;;;;;;4868101;29;34661;-70
2021/12/09 10:04:10;;;;;;;15.10;5.35;;;;;;;;;;4867932;29;32288;-70
2021/12/09 10:06:40;;;;;;;5.93;5.05;;;;;;;;;;4868023;29;32473;-69
2021/12/09 10:09:30;;;;;;;5.20;4.80;;;;;;;;;;4867334;29;32782;-69
2021/12/09 10:11:59;;;;;;;5.32;4.10;;;;;;;;;;4867663;29;32333;-69
2021/12/09 10:14:29;;;;;;;5.30;4.80;;;;;;;;;;4867153;29;32775;-70
2021/12/09 10:17:08;;;;;;;6.85;4.65;;;;;;;;;;4868168;29;32288;-70
2021/12/09 10:19:38;;;;;;;7.25;4.55;;;;;;;;;;4867726;29;32304;-68
2021/12/09 10:22:10;;;;;;;6.45;4.70;;;;;;;;;;4867541;29;32301;-68
2021/12/09 10:24:47;;;;;;;;;;;;;;;;;;4867497;29;34282;-69
2021/12/09 10:27:24;;;;;;;6.80;4.53;;;;;;;;;;4867220;29;32485;-69
2021/12/09 10:29:59;;;;;;;4.50;4.10;;;;;;;;;;4867314;29;32420;-69
2021/12/09 10:32:32;;;;;;;5.20;4.55;;;;;;;;;;4866891;29;32482;-68
2021/12/09 10:35:06;;;;;;;4.60;4.15;;;;;;;;;;4867588;29;32686;-69
2021/12/09 10:37:36;;;;;;;4.75;4.25;;;;;;;;;;4867220;29;32434;-70
2021/12/09 10:40:08;;;;;;;4.53;4.13;;;;;;;;;;4867153;29;32391;-69
2021/12/09 10:42:39;;;;;;;6.85;5.05;;;;;;;;;;4866512;29;32512;-69
2021/12/09 10:45:09;;;;;;;4.22;3.92;;;;;;;;;;4867295;29;32379;-69
2021/12/09 10:47:52;;;;;;;4.97;4.53;;;;;;;;;;4866582;29;34158;-69
2021/12/09 10:50:31;;;;;;;5.68;4.30;;;;;;;;;;4867231;29;32668;-68
2021/12/09 10:53:17;;;;;;;4.97;4.47;;;;;;;;;;4867303;29;32385;-70
2021/12/09 10:55:47;;;;;;;7.32;5.25;;;;;;;;;;4866993;29;32682;-69
2021/12/09 10:58:19;;;;;;;4.15;3.88;;;;;;;;;;4866857;29;32214;-70
2021/12/09 11:00:52;;;;;;;4.93;4.53;;;;;;;;;;4866433;29;32782;-70
2021/12/09 11:03:23;;;;;;;6.40;4.70;;;;;;;;;;4866986;29;32421;-69
2021/12/09 11:06:00;;;;;;;4.47;4.18;;;;;;;;;;4866937;29;32459;-70
2021/12/09 11:08:34;;;;;;;6.60;4.07;;;;;;;;;;4867490;29;32442;-68
2021/12/09 11:11:11;;;;;;;4.32;4.03;;;;;;;;;;4866438;29;34262;-68
2021/12/09 11:13:47;;;;;;;5.00;4.60;;;;;;;;;;4866604;29;32423;-70
2021/12/09 11:16:24;;;;;;;5.05;4.65;;;;;;;;;;4866530;29;32362;-69
2021/12/09 11:18:56;;;;;;;4.85;4.22;;;;;;;;;;4866641;29;32406;-69
2021/12/09 11:21:28;;;;;;;5.15;4.70;;;;;;;;;;4867041;29;32346;-69
2021/12/09 11:24:03;;;;;;;4.72;4.22;;;;;;;;;;4866604;29;32394;-70
2021/12/09 11:26:48;;;;;;;8.63;4.47;;;;;;;;;;4866949;29;32359;-68
2021/12/09 11:29:18;;;;;;;4.68;4.28;;;;;;;;;;4866865;29;32453;-69
2021/12/09 11:31:59;;;;;;;5.13;4.63;;;;;;;;;;4866076;29;32525;-69
2021/12/09 11:34:38;;;;;;;5.32;4.75;;;;;;;;;;4866532;29;34983;-71
2021/12/09 11:37:19;;;;;;;4.43;4.07;;;;;;;;;;4867163;29;32344;-69
2021/12/09 11:39:48;;;;;;;5.10;4.70;;;;;;;;;;4866145;29;32390;-69
2021/12/09 11:42:28;;;;;;;4.70;4.30;;;;;;;;;;4867239;29;32520;-69
2021/12/09 11:44:56;;;;;;;4.00;3.80;;;;;;;;;;4866497;29;35348;-69
2021/12/09 11:47:24;;;;;;;5.07;4.57;;;;;;;;;;4867024;29;32399;-69
2021/12/09 11:49:53;;;;;;;4.10;3.65;;;;;;;;;;4866074;29;32342;-69
2021/12/09 11:52:23;;;;;;;4.72;4.40;;;;;;;;;;4866399;29;32387;-69
2021/12/09 11:54:58;;;;;;;4.45;4.10;;;;;;;;;;4866314;29;32375;-68
2021/12/09 11:57:35;;;;;;;5.82;4.10;;;;;;;;;;4866375;29;33942;-70
2021/12/09 12:12:36;;;;;;;5.25;4.38;;;;;;;;;;4865997;29;32394;-69
2021/12/09 12:15:48;;;;;;;5.22;4.40;;;;;;;;;;4866633;29;32285;-70
2021/12/09 12:18:31;;;;;;;5.13;3.80;;;;;;;;;;4866441;29;32562;-69
2021/12/09 12:25:11;;;;;;;4.97;3.97;;;;;;;;;;4847072;29;34347;-69
2021/12/09 12:27:50;;;;;;;4.15;3.85;;;;;;;;;;4860681;29;32630;-69
2021/12/09 12:33:17;;;;;;;4.72;4.30;;;;;;;;;;4865449;29;32299;-69
2021/12/09 12:35:58;;;;;;;;;;;;;;;;;;4866391;29;34344;-69
2021/12/09 12:38:49;;;;;;;8.45;3.80;;;;;;;;;;4866583;29;32493;-69
2021/12/09 12:41:19;;;;;;;5.07;4.65;;;;;;;;;;4865809;29;32628;-69
2021/12/09 12:43:57;;;;;;;4.40;4.00;;;;;;;;;;4866270;29;32384;-69
2021/12/09 12:46:55;;;;;;;5.82;5.18;;;;;;;;;;4865973;29;32439;-69
2021/12/09 12:49:31;;;;;;;4.97;4.43;;;;;;;;;;4865684;29;35431;-69
2021/12/09 12:52:07;;;;;;;4.18;3.78;;;;;;;;;;4865781;29;32404;-69
2021/12/09 12:54:48;;;;;;;4.07;3.78;;;;;;;;;;4865183;29;32463;-69
2021/12/09 12:57:31;;;;;;;5.32;4.82;;;;;;;;;;4865854;29;32342;-69
2021/12/09 13:00:13;;;;;;;5.05;4.30;;;;;;;;;;4865798;29;35662;-70
2021/12/09 13:05:56;;;;;;;4.10;3.63;;;;;;;;;;4806880;29;32564;-69
2021/12/09 13:08:45;;;;;;;5.90;4.40;;;;;;;;;;4806900;29;32386;-69
2021/12/09 13:11:18;;;;;;;5.47;4.00;;;;;;;;;;4846744;29;32447;-69
2021/12/09 13:13:59;;;;;;;4.60;4.20;;;;;;;;;;4865687;29;35427;-69
2021/12/09 13:16:41;;;;;;;3.93;3.63;;;;;;;;;;4865578;29;32124;-69
2021/12/09 13:19:33;;;;;;;6.00;3.83;;;;;;;;;;4865380;29;32373;-69
2021/12/09 13:22:03;;;;;;;4.20;3.90;;;;;;;;;;4867085;29;32517;-69
2021/12/09 13:24:39;;;;;;;4.38;4.07;;;;;;;;;;4868210;29;35184;-69
2021/12/09 13:27:21;;;;;;;5.07;4.60;;;;;;;;;;4867462;29;32409;-69
2021/12/09 13:30:10;;;;;;;4.63;4.22;;;;;;;;;;4842440;29;32021;-70
2021/12/09 13:35:51;;;;;;;5.18;4.75;;;;;;;;;;4853681;29;32498;-69
2021/12/09 13:39:04;;;;;;;5.22;4.60;;;;;;;;;;4856447;29;35185;-69
2021/12/09 13:47:10;;;;;;;10.65;5.95;;;;;;;;;;4857447;29;32463;-69
2021/12/09 13:49:51;;;;;;;4.28;3.95;;;;;;;;;;4855752;29;34047;-70
2021/12/09 13:55:11;;;;;;;5.70;4.53;;;;;;;;;;4856440;29;32485;-70
2021/12/09 13:57:40;;;;;;;;;;;;;;;;;;4856172;29;32544;-71
2021/12/09 14:00:15;;;;;;;7.68;4.20;;;;;;;;;;4856071;29;32435;-69
2021/12/09 14:02:52;;;;;;;4.85;4.55;;;;;;;;;;4856768;29;34691;-71
2021/12/09 14:05:22;;;;;;;5.63;5.22;;;;;;;;;;4856102;29;32599;-68
2021/12/09 14:07:57;;;;;;;5.40;5.03;;;;;;;;;;4855922;29;32555;-69
2021/12/09 14:10:29;;;;;;;5.68;5.28;;;;;;;;;;4856164;29;32427;-70
2021/12/09 14:13:01;;;;;;;5.28;4.88;;;;;;;;;;4855871;29;34650;-70
2021/12/09 14:15:37;;;;;;;5.20;4.70;;;;;;;;;;4855981;29;32537;-69
2021/12/09 14:18:15;;;;;;;5.25;4.80;;;;;;;;;;4856323;29;32447;-69
2021/12/09 14:20:46;;;;;;;5.40;4.90;;;;;;;;;;4855816;29;32577;-70
2021/12/09 14:23:16;;;;;;;4.95;4.65;;;;;;;;;;4856951;29;32405;-70
2021/12/09 14:25:45;;;;;;;7.03;4.80;;;;;;;;;;4856848;29;34071;-70
2021/12/09 14:28:16;;;;;;;4.63;4.32;;;;;;;;;;4855713;29;32944;-69
2021/12/09 14:30:48;;;;;;;5.38;4.30;;;;;;;;;;4851175;29;32480;-69
2021/12/09 14:33:17;;;;;;;4.05;3.75;;;;;;;;;;4856587;29;32586;-69
2021/12/09 14:35:54;;;;;;;4.15;3.90;;;;;;;;;;4855036;29;34745;-69
2021/12/09 14:38:24;;;;;;;3.97;3.67;;;;;;;;;;4850495;29;32453;-70
2021/12/09 14:41:01;;;;;;;4.30;3.97;;;;;;;;;;4855886;29;32599;-69
2021/12/09 14:43:29;;;;;;;4.38;4.03;;;;;;;;;;4857677;29;32548;-69
2021/12/09 14:46:00;;;;;;;4.05;3.75;;;;;;;;;;4857380;29;32466;-70
2021/12/09 14:48:34;;;;;;;4.28;3.78;;;;;;;;;;4856287;29;34232;-70
2021/12/09 14:51:14;;;;;;;4.38;4.07;;;;;;;;;;4856567;29;32476;-70
2021/12/09 14:53:45;;;;;;;3.88;3.65;;;;;;;;;;4857194;29;32471;-68
2021/12/09 14:56:30;;;;;;;4.03;3.67;;;;;;;;;;4856673;29;32507;-69
2021/12/09 14:59:19;;;;;;;6.53;3.75;;;;;;;;;;4857004;29;34131;-70
2021/12/09 15:01:52;;;;;;;4.22;3.92;;;;;;;;;;4859730;29;32475;-69
2021/12/09 15:04:33;;;;;;;4.45;3.83;;;;;;;;;;4855493;29;32873;-70
2021/12/09 15:07:11;;;;;;;4.35;3.95;;;;;;;;;;4856133;29;32511;-70
2021/12/09 15:09:39;;;;;;;4.30;3.90;;;;;;;;;;4856706;29;32510;-70
2021/12/09 15:12:11;;;;;;;4.30;4.00;;;;;;;;;;4857461;29;34694;-70
2021/12/09 15:14:43;;;;;;;3.97;3.60;;;;;;;;;;4854784;29;32686;-70
2021/12/09 15:17:19;;;;;;;3.75;3.55;;;;;;;;;;4858515;29;32522;-71
2021/12/09 15:20:07;;;;;;;4.72;3.60;;;;;;;;;;4857238;29;32431;-71
2021/12/09 15:22:56;;;;;;;6.47;3.30;;;;;;;;;;4857577;29;34244;-71
2021/12/09 15:25:27;;;;;;;3.95;3.65;;;;;;;;;;4857229;29;32532;-70
2021/12/09 15:28:01;;;;;;;3.47;3.28;;;;;;;;;;4854371;29;32463;-69
2021/12/09 15:30:49;;;;;;;4.10;3.80;;;;;;;;;;4855025;29;32396;-69
2021/12/09 15:33:24;;;;;;;3.72;3.50;;;;;;;;;;4856800;29;32383;-70
2021/12/09 15:36:13;;;;;;;3.58;3.35;;;;;;;;;;4857562;29;34425;-69
2021/12/09 15:38:46;;;;;;;3.95;3.63;;;;;;;;;;4850921;29;32542;-70
2021/12/09 15:41:24;;;;;;;4.28;3.97;;;;;;;;;;4857767;29;32510;-70
2021/12/09 15:43:55;;;;;;;3.72;3.42;;;;;;;;;;4856792;29;32354;-70
2021/12/09 15:46:23;;;;;;;4.00;3.70;;;;;;;;;;4854652;29;34401;-69
2021/12/09 15:48:52;;;;;;;3.70;3.40;;;;;;;;;;4855216;29;32705;-70
2021/12/09 15:51:24;;;;;;;6.07;3.83;;;;;;;;;;4858341;29;32609;-70